Time;durP1;ratioP1;P1;durP2;ratioP2;P2;SDS_P1;SDS_P2;PMS_P1;PMS_P2;Temp;Humidity;BMP_temperature;BMP_pressure;BME280_temperature;BME280_humidity;BME280_pressure;Samples;Min_cycle;Max_cycle;Signal;HPM_P1;HPM_P2
2022/06/13 00:02:23;;;;;;;8.38;1.75;;;18.90;46.80;;;;;;5058505;28;20052;-56
2022/06/13 00:04:50;;;;;;;5.05;1.92;;;18.90;46.80;;;;;;5058342;28;20044;-55
2022/06/13 00:07:18;;;;;;;6.68;2.17;;;18.90;47.00;;;;;;5059710;28;20049;-53
2022/06/13 00:09:45;;;;;;;7.18;2.13;;;18.90;47.00;;;;;;5059214;28;20053;-53
2022/06/13 00:12:14;;;;;;;5.15;1.88;;;18.80;47.20;;;;;;5058913;28;20063;-53
2022/06/13 00:14:41;;;;;;;8.18;2.42;;;18.80;47.30;;;;;;5060089;28;20059;-55
2022/06/13 00:17:09;;;;;;;6.25;2.08;;;18.80;47.40;;;;;;5061179;28;20434;-52
2022/06/13 00:19:36;;;;;;;5.18;2.20;;;18.80;47.50;;;;;;5059674;28;20052;-55
2022/06/13 00:22:05;;;;;;;7.90;1.95;;;18.70;47.50;;;;;;5058835;28;20574;-55
2022/06/13 00:24:33;;;;;;;8.57;1.75;;;18.70;47.50;;;;;;5060531;28;20067;-51
2022/06/13 00:27:01;;;;;;;5.60;2.08;;;18.70;47.50;;;;;;5060630;28;20053;-55
2022/06/13 00:29:30;;;;;;;5.88;2.10;;;18.70;47.70;;;;;;5060237;28;20049;-50
2022/06/13 00:31:58;;;;;;;7.03;2.20;;;18.60;47.80;;;;;;5057016;28;20048;-53
2022/06/13 00:34:25;;;;;;;11.75;2.20;;;18.60;47.80;;;;;;5059740;28;20067;-55
2022/06/13 00:36:53;;;;;;;6.13;2.20;;;18.60;47.90;;;;;;5058372;28;20056;-54
2022/06/13 00:39:20;;;;;;;7.43;2.55;;;18.60;47.80;;;;;;5061596;28;20408;-50
2022/06/13 00:41:48;;;;;;;7.80;2.40;;;18.50;47.80;;;;;;5057387;28;20056;-51
2022/06/13 00:44:20;;;;;;;6.50;1.90;;;18.50;47.90;;;;;;5061010;28;20049;-52
2022/06/13 00:46:50;;;;;;;7.28;2.08;;;18.50;48.10;;;;;;5058308;28;20068;-54
2022/06/13 00:49:21;;;;;;;4.72;1.92;;;18.40;48.10;;;;;;5060433;28;20484;-54
2022/06/13 00:51:53;;;;;;;5.07;1.95;;;18.40;48.00;;;;;;5055896;28;20406;-53
2022/06/13 00:54:22;;;;;;;6.65;1.85;;;18.40;48.10;;;;;;5060157;28;20063;-52
2022/06/13 00:56:51;;;;;;;6.10;2.15;;;18.40;48.20;;;;;;5060647;28;20049;-51
2022/06/13 00:59:21;;;;;;;4.57;1.80;;;18.30;48.20;;;;;;5061497;28;20052;-54
2022/06/13 01:01:50;;;;;;;4.75;1.90;;;18.30;48.30;;;;;;5056160;28;20052;-52
2022/06/13 01:04:17;;;;;;;8.55;2.42;;;18.30;48.30;;;;;;5060336;28;20048;-57
2022/06/13 01:06:48;;;;;;;6.25;1.88;;;18.30;48.20;;;;;;5058671;28;20055;-56
2022/06/13 01:09:18;;;;;;;4.60;1.77;;;18.30;48.20;;;;;;5060526;28;20052;-55
2022/06/13 01:11:50;;;;;;;4.93;1.70;;;18.30;48.20;;;;;;5057073;28;20056;-54
2022/06/13 01:14:46;;;;;;;10.30;1.98;;;18.20;48.20;;;;;;5063018;28;20045;-54
2022/06/13 01:17:44;;;;;;;6.22;1.88;;;18.20;48.40;;;;;;5063932;28;20415;-54
2022/06/13 01:20:40;;;;;;;3.75;1.38;;;18.30;48.30;;;;;;5060449;28;20056;-56
2022/06/13 01:23:33;;;;;;;5.63;1.90;;;18.20;48.30;;;;;;5053386;28;20056;-56
2022/06/13 01:26:20;;;;;;;9.25;1.88;;;18.20;48.40;;;;;;5063725;28;20056;-57
2022/06/13 01:29:26;;;;;;;9.65;2.53;;;18.20;48.40;;;;;;5056570;28;20067;-54
2022/06/13 01:32:01;;;;;;;4.50;1.70;;;18.20;48.50;;;;;;5047211;28;20063;-55
2022/06/13 01:34:36;;;;;;;4.75;1.92;;;18.20;48.50;;;;;;5060805;28;20048;-58
2022/06/13 01:37:12;;;;;;;6.10;2.33;;;18.10;48.50;;;;;;5063156;28;20546;-57
2022/06/13 01:39:53;;;;;;;8.68;2.35;;;18.10;48.60;;;;;;5058260;28;20060;-56
2022/06/13 01:42:34;;;;;;;5.43;1.90;;;18.10;48.70;;;;;;5061592;28;20056;-52
2022/06/13 01:45:10;;;;;;;7.32;2.30;;;18.00;48.70;;;;;;5063416;28;20056;-55
2022/06/13 01:47:46;;;;;;;11.30;2.30;;;18.00;48.80;;;;;;5060980;28;20049;-56
2022/06/13 01:50:22;;;;;;;7.00;2.17;;;18.00;48.80;;;;;;5058665;28;20056;-54
2022/06/13 01:52:59;;;;;;;6.85;2.38;;;18.00;48.90;;;;;;5063246;28;20074;-55
2022/06/13 01:55:34;;;;;;;5.85;2.03;;;17.90;48.90;;;;;;5062284;28;20079;-55
2022/06/13 01:58:07;;;;;;;8.75;2.42;;;17.90;49.00;;;;;;5063976;28;20048;-50
2022/06/13 02:00:36;;;;;;;7.10;2.22;;;17.90;49.00;;;;;;5058717;28;20507;-56
2022/06/13 02:03:15;;;;;;;6.45;2.65;;;17.90;49.00;;;;;;5063233;28;20515;-55
2022/06/13 02:05:46;;;;;;;7.93;2.22;;;17.90;49.20;;;;;;5062284;28;20060;-55
2022/06/13 02:08:21;;;;;;;9.77;2.40;;;17.80;49.10;;;;;;5062857;28;20057;-55
2022/06/13 02:10:54;;;;;;;7.20;2.75;;;17.80;49.30;;;;;;5059779;28;20087;-57
2022/06/13 02:13:29;;;;;;;9.35;2.38;;;17.80;49.20;;;;;;5063750;28;20427;-57
2022/06/13 02:15:59;;;;;;;5.85;2.90;;;17.80;49.20;;;;;;5060036;28;20067;-54
2022/06/13 02:18:33;;;;;;;9.20;2.63;;;17.70;49.20;;;;;;5060120;28;20048;-55
2022/06/13 02:21:07;;;;;;;8.77;2.67;;;17.70;49.40;;;;;;5060120;28;20060;-58
2022/06/13 02:23:39;;;;;;;6.40;2.65;;;17.70;49.50;;;;;;5061787;28;20071;-53
2022/06/13 02:26:11;;;;;;;7.68;2.50;;;17.70;49.50;;;;;;5064199;28;20060;-56
2022/06/13 02:28:44;;;;;;;8.82;3.17;;;17.70;49.50;;;;;;5064025;28;20049;-54
2022/06/13 02:31:15;;;;;;;6.38;2.38;;;17.70;49.60;;;;;;5058449;28;20093;-56
2022/06/13 02:33:50;;;;;;;8.20;3.05;;;17.60;49.60;;;;;;5063757;28;20053;-54
2022/06/13 02:36:23;;;;;;;7.30;2.90;;;17.60;49.80;;;;;;5060645;28;20962;-55
2022/06/13 02:38:57;;;;;;;7.03;2.55;;;17.60;49.80;;;;;;5059449;28;20053;-57
2022/06/13 02:41:27;;;;;;;9.18;3.00;;;17.60;50.00;;;;;;5058581;28;20060;-56
2022/06/13 02:44:01;;;;;;;8.13;2.50;;;17.50;50.00;;;;;;5063967;28;20055;-54
2022/06/13 02:46:35;;;;;;;11.52;3.15;;;17.50;50.10;;;;;;5061334;28;20507;-57
2022/06/13 02:49:09;;;;;;;9.82;3.15;;;17.50;50.20;;;;;;5062396;28;20052;-57
2022/06/13 02:51:43;;;;;;;7.82;3.03;;;17.50;50.30;;;;;;5059456;28;20492;-55
2022/06/13 02:54:18;;;;;;;8.07;3.03;;;17.50;50.30;;;;;;5060928;28;20067;-55
2022/06/13 02:59:51;;;;;;;8.60;3.03;;;17.40;50.40;;;;;;5064323;28;20071;-55
2022/06/13 03:02:28;;;;;;;7.53;3.10;;;17.40;50.60;;;;;;5060224;28;20059;-57
2022/06/13 03:05:06;;;;;;;8.80;2.92;;;17.40;50.60;;;;;;5055558;28;20388;-59
2022/06/13 03:07:49;;;;;;;11.40;3.45;;;17.40;50.70;;;;;;5062686;28;20057;-56
2022/06/13 03:10:20;;;;;;;11.63;3.03;;;17.30;51.00;;;;;;5062825;28;20063;-55
2022/06/13 03:12:57;;;;;;;12.48;3.22;;;17.30;50.90;;;;;;5060961;28;20063;-51
2022/06/13 03:15:31;;;;;;;11.68;2.97;;;17.20;51.10;;;;;;5056037;28;20045;-57
2022/06/13 03:18:03;;;;;;;9.07;3.22;;;17.20;51.10;;;;;;5059075;28;20056;-54
2022/06/13 03:20:39;;;;;;;10.80;2.85;;;17.10;51.10;;;;;;5059450;28;20052;-54
2022/06/13 03:23:12;;;;;;;7.30;2.90;;;17.10;51.20;;;;;;5062915;28;20059;-55
2022/06/13 03:25:44;;;;;;;9.38;3.28;;;17.10;51.30;;;;;;5062484;28;20079;-55
2022/06/13 03:28:16;;;;;;;12.52;2.95;;;17.10;51.40;;;;;;5059311;28;20044;-57
2022/06/13 03:30:53;;;;;;;5.60;2.40;;;17.00;51.40;;;;;;5058197;28;20056;-56
2022/06/13 03:33:43;;;;;;;12.55;2.85;;;17.00;51.50;;;;;;5062005;28;20056;-57
2022/06/13 03:36:17;;;;;;;10.45;3.45;;;17.00;51.50;;;;;;5059036;28;20424;-57
2022/06/13 03:38:51;;;;;;;9.45;3.42;;;17.00;51.60;;;;;;5060711;28;20056;-57
2022/06/13 03:41:20;;;;;;;;;;;17.00;51.70;;;;;;5058518;28;20055;-55
2022/06/13 03:43:52;;;;;;;11.80;2.92;;;17.00;51.40;;;;;;5061449;28;19920;-54
2022/06/13 03:46:27;;;;;;;12.18;3.17;;;17.00;51.60;;;;;;5060765;28;20575;-55
2022/06/13 03:48:58;;;;;;;7.40;2.85;;;17.00;51.70;;;;;;5061937;28;20416;-56
2022/06/13 03:51:32;;;;;;;12.07;3.35;;;16.90;51.70;;;;;;5057562;28;20048;-53
2022/06/13 03:54:02;;;;;;;;;;;16.90;51.80;;;;;;5054739;28;20067;-55
2022/06/13 03:56:36;;;;;;;9.32;3.47;;;16.90;51.60;;;;;;5059312;28;20360;-53
2022/06/13 03:59:06;;;;;;;;;;;17.00;51.80;;;;;;5061027;28;20044;-55
2022/06/13 04:01:39;;;;;;;9.40;3.30;;;17.00;51.70;;;;;;5058715;28;19924;-54
2022/06/13 04:04:11;;;;;;;10.93;3.40;;;16.90;51.80;;;;;;5058048;28;20400;-56
2022/06/13 04:06:41;;;;;;;13.30;2.72;;;16.90;51.90;;;;;;5060068;28;20048;-54
2022/06/13 04:09:14;;;;;;;8.77;3.15;;;16.90;52.00;;;;;;5060257;28;20049;-51
2022/06/13 04:12:03;;;;;;;5.32;2.53;;;16.90;52.10;;;;;;5059039;28;20052;-54
2022/06/13 04:15:20;;;;;;;13.23;3.38;;;17.00;52.40;;;;;;5060765;28;20044;-54
2022/06/13 04:17:58;;;;;;;7.65;2.88;;;17.00;52.70;;;;;;5056887;28;20519;-56
2022/06/13 04:20:30;;;;;;;12.00;2.97;;;17.00;52.40;;;;;;5054400;28;20064;-54
2022/06/13 04:23:07;;;;;;;7.97;2.70;;;17.00;52.50;;;;;;5061183;28;20045;-55
2022/06/13 04:25:42;;;;;;;8.40;3.35;;;17.00;52.50;;;;;;5060875;28;20067;-51
2022/06/13 04:28:15;;;;;;;5.38;2.70;;;17.00;52.40;;;;;;5057410;28;20052;-54
2022/06/13 04:30:44;;;;;;;7.72;3.28;;;17.00;52.40;;;;;;5057681;28;20083;-56
2022/06/13 04:33:16;;;;;;;8.82;3.10;;;17.00;52.50;;;;;;5061718;28;20488;-52
2022/06/13 04:35:45;;;;;;;10.45;3.63;;;17.00;52.70;;;;;;5057304;28;20063;-54
2022/06/13 04:38:17;;;;;;;15.35;7.10;;;16.90;52.70;;;;;;5059786;28;20488;-53
2022/06/13 04:40:48;;;;;;;17.45;5.18;;;17.00;52.80;;;;;;5060476;28;20753;-55
2022/06/13 04:43:19;;;;;;;11.32;4.05;;;16.90;52.80;;;;;;5057212;28;20053;-55
2022/06/13 04:45:49;;;;;;;11.10;3.50;;;17.00;52.80;;;;;;5057230;28;20408;-53
2022/06/13 04:48:18;;;;;;;13.23;4.43;;;17.00;52.80;;;;;;5057613;28;20075;-55
2022/06/13 04:50:50;;;;;;;10.45;3.42;;;17.00;52.80;;;;;;5055514;28;20419;-54
2022/06/13 04:53:22;;;;;;;13.02;3.60;;;17.00;52.80;;;;;;5063109;28;20059;-53
2022/06/13 04:55:53;;;;;;;8.93;3.00;;;17.00;52.80;;;;;;5064636;28;20052;-54
2022/06/13 04:58:25;;;;;;;13.65;4.40;;;17.00;52.70;;;;;;5061525;28;20060;-53
2022/06/13 05:00:59;;;;;;;11.00;3.90;;;17.10;52.80;;;;;;5063255;28;20063;-55
2022/06/13 05:03:29;;;;;;;;;;;17.10;53.30;;;;;;5062794;28;20056;-53
2022/06/13 05:06:02;;;;;;;8.32;3.00;;;17.10;52.60;;;;;;5063537;28;20360;-54
2022/06/13 05:08:35;;;;;;;13.10;3.63;;;17.10;52.50;;;;;;5063369;28;20049;-55
2022/06/13 05:11:11;;;;;;;7.68;3.00;;;17.20;52.60;;;;;;5063112;28;20056;-54
2022/06/13 05:13:38;;;;;;;5.43;2.88;;;17.20;52.70;;;;;;5061813;28;20424;-53
2022/06/13 05:16:16;;;;;;;11.18;3.67;;;17.20;52.70;;;;;;5062733;28;20059;-55
2022/06/13 05:19:07;;;;;;;14.10;4.03;;;17.20;52.80;;;;;;5061319;28;20048;-52
2022/06/13 05:21:47;;;;;;;7.65;3.17;;;17.30;53.00;;;;;;5060772;28;20048;-56
2022/06/13 05:24:37;;;;;;;16.50;5.07;;;17.30;52.80;;;;;;5062706;28;20416;-57
2022/06/13 05:27:06;;;;;;;10.07;3.33;;;17.30;52.80;;;;;;5059768;28;20057;-54
2022/06/13 05:29:34;;;;;;;11.25;3.60;;;17.40;52.80;;;;;;5054338;28;20048;-57
2022/06/13 05:32:02;;;;;;;13.50;4.18;;;17.40;52.80;;;;;;5052194;28;20135;-56
2022/06/13 05:34:33;;;;;;;12.20;3.30;;;17.40;52.80;;;;;;5062257;28;20057;-55
2022/06/13 05:37:01;;;;;;;10.35;3.58;;;17.50;52.70;;;;;;5062739;28;20052;-59
2022/06/13 05:39:31;;;;;;;9.00;3.60;;;17.50;52.70;;;;;;5060638;28;20048;-57
2022/06/13 05:41:58;;;;;;;13.55;4.60;;;17.60;52.50;;;;;;5059922;28;20476;-55
2022/06/13 05:44:26;;;;;;;8.73;3.70;;;17.60;52.40;;;;;;5064689;28;20053;-55
2022/06/13 05:46:54;;;;;;;14.38;3.85;;;17.70;52.50;;;;;;5063146;28;20052;-56
2022/06/13 05:49:22;;;;;;;10.85;3.70;;;17.80;52.40;;;;;;5061905;28;20052;-55
2022/06/13 05:51:50;;;;;;;50.42;20.25;;;17.80;52.30;;;;;;5061833;28;20059;-55
2022/06/13 05:54:17;;;;;;;32.58;13.55;;;17.90;52.20;;;;;;5063669;28;20045;-57
2022/06/13 05:56:46;;;;;;;15.65;5.63;;;17.90;52.20;;;;;;5063438;28;20061;-56
2022/06/13 05:59:13;;;;;;;10.48;3.92;;;17.90;52.20;;;;;;5058148;28;20106;-55
2022/06/13 06:01:41;;;;;;;9.98;3.53;;;18.00;52.20;;;;;;5054661;28;20468;-55
2022/06/13 06:04:08;;;;;;;8.80;3.38;;;18.00;52.10;;;;;;5057368;28;20381;-57
2022/06/13 06:06:38;;;;;;;7.78;3.20;;;18.10;52.10;;;;;;5059535;28;20060;-53
2022/06/13 06:09:06;;;;;;;12.55;3.60;;;18.10;52.20;;;;;;5061553;28;20073;-54
2022/06/13 06:11:36;;;;;;;11.68;3.80;;;18.20;52.20;;;;;;5062290;28;20056;-55
2022/06/13 06:14:05;;;;;;;11.05;3.55;;;18.30;52.20;;;;;;5056421;28;20711;-54
2022/06/13 06:16:34;;;;;;;8.65;3.03;;;18.30;52.20;;;;;;5060727;28;20052;-52
2022/06/13 06:19:01;;;;;;;10.18;3.40;;;18.40;52.20;;;;;;5055686;28;20059;-54
2022/06/13 06:21:29;;;;;;;14.02;3.67;;;18.50;52.40;;;;;;5057233;28;21862;-55
2022/06/13 06:23:56;;;;;;;13.30;4.13;;;18.50;52.40;;;;;;5060811;28;20052;-57
2022/06/13 06:26:26;;;;;;;9.80;3.60;;;18.60;52.00;;;;;;5058037;28;20063;-54
2022/06/13 06:28:54;;;;;;;9.35;3.10;;;18.70;51.90;;;;;;5053481;28;20056;-55
2022/06/13 06:31:23;;;;;;;10.70;2.90;;;18.80;51.90;;;;;;5055064;28;20098;-56
2022/06/13 06:33:51;;;;;;;8.77;3.55;;;18.80;51.60;;;;;;5054744;28;20067;-54
2022/06/13 06:36:18;;;;;;;17.20;4.53;;;18.90;51.60;;;;;;5061858;28;20064;-54
2022/06/13 06:38:46;;;;;;;14.77;3.75;;;18.90;51.30;;;;;;5062262;28;20059;-55
2022/06/13 06:41:14;;;;;;;12.18;3.30;;;19.00;51.10;;;;;;5063089;28;20045;-54
2022/06/13 06:43:41;;;;;;;11.30;3.85;;;19.10;51.10;;;;;;5061184;28;20411;-54
2022/06/13 06:46:10;;;;;;;13.63;4.25;;;19.10;51.10;;;;;;5065487;28;20415;-54
2022/06/13 06:48:39;;;;;;;10.75;3.72;;;19.20;51.10;;;;;;5068326;28;20067;-54
2022/06/13 06:51:08;;;;;;;10.40;3.55;;;19.20;51.30;;;;;;5064115;28;20419;-52
2022/06/13 07:01:55;;;;;;;12.13;3.40;;;19.50;51.40;;;;;;5065324;28;20515;-54
2022/06/13 07:04:23;;;;;;;16.67;4.28;;;19.60;50.90;;;;;;5059872;28;20424;-53
2022/06/13 07:06:51;;;;;;;9.60;3.30;;;19.60;50.00;;;;;;5060887;28;20056;-55
2022/06/13 07:09:19;;;;;;;10.27;3.13;;;19.60;50.20;;;;;;5062508;28;20055;-56
2022/06/13 07:11:56;;;;;;;11.25;3.40;;;19.60;50.50;;;;;;5060407;28;20055;-52
2022/06/13 07:14:25;;;;;;;14.27;4.00;;;19.60;50.60;;;;;;5063305;28;21122;-56
2022/06/13 07:16:53;;;;;;;9.80;3.58;;;19.60;51.00;;;;;;5061655;28;20053;-55
2022/06/13 07:19:22;;;;;;;13.45;3.72;;;19.70;50.60;;;;;;5060847;28;20081;-56
2022/06/13 07:21:50;;;;;;;11.63;4.20;;;19.70;50.60;;;;;;5056889;28;20059;-49
2022/06/13 07:24:18;;;;;;;15.15;4.18;;;19.70;50.40;;;;;;5054763;28;21953;-52
2022/06/13 07:26:45;;;;;;;11.10;3.75;;;19.60;50.40;;;;;;5054112;28;20049;-51
2022/06/13 07:29:13;;;;;;;12.43;4.07;;;19.60;50.00;;;;;;5056062;28;20053;-54
2022/06/13 07:31:43;;;;;;;18.75;3.97;;;19.60;49.50;;;;;;5054875;28;20055;-53
2022/06/13 07:34:15;;;;;;;13.25;4.18;;;19.50;49.60;;;;;;5061071;28;20415;-53
2022/06/13 07:36:45;;;;;;;13.63;4.15;;;19.50;50.20;;;;;;5050860;28;20517;-52
2022/06/13 07:39:13;;;;;;;14.63;3.75;;;19.40;50.50;;;;;;5042814;28;20049;-54
2022/06/13 07:41:41;;;;;;;9.75;3.67;;;19.40;50.70;;;;;;5042153;28;20053;-56
2022/06/13 07:44:13;;;;;;;13.93;4.55;;;19.40;50.50;;;;;;5044951;28;20127;-55
2022/06/13 07:46:41;;;;;;;16.63;4.70;;;19.40;50.10;;;;;;5044504;28;20063;-53
2022/06/13 07:49:09;;;;;;;12.50;4.50;;;19.50;50.50;;;;;;5050986;28;20061;-51
2022/06/13 07:51:37;;;;;;;10.02;3.55;;;19.50;50.50;;;;;;5055335;28;20412;-55
2022/06/13 07:54:06;;;;;;;16.02;4.35;;;19.50;50.20;;;;;;5054139;28;20078;-49
2022/06/13 07:56:35;;;;;;;12.77;3.92;;;19.50;50.20;;;;;;5060872;28;20492;-54
2022/06/13 07:59:03;;;;;;;16.58;4.85;;;19.60;50.70;;;;;;5052974;28;20055;-57
2022/06/13 08:01:31;;;;;;;16.23;4.63;;;19.60;50.70;;;;;;5056368;28;20417;-52
2022/06/13 08:03:59;;;;;;;12.95;4.07;;;19.50;50.20;;;;;;5056940;28;20273;-51
2022/06/13 08:06:27;;;;;;;18.70;4.25;;;19.50;50.30;;;;;;5058211;28;20079;-51
2022/06/13 08:08:55;;;;;;;13.57;4.57;;;19.40;50.30;;;;;;5057830;28;20048;-52
2022/06/13 08:11:30;;;;;;;12.73;3.83;;;19.40;50.30;;;;;;5057120;28;20598;-50
2022/06/13 08:13:57;;;;;;;16.30;5.00;;;19.30;50.10;;;;;;5059390;28;20071;-55
2022/06/13 08:16:25;;;;;;;17.73;4.40;;;19.30;50.60;;;;;;5055393;28;20044;-53
2022/06/13 08:18:53;;;;;;;13.48;4.30;;;19.30;50.20;;;;;;5060055;28;20515;-49
2022/06/13 08:21:21;;;;;;;17.60;4.43;;;19.30;50.70;;;;;;5057611;28;20044;-52
2022/06/13 08:23:49;;;;;;;21.73;5.72;;;19.30;51.10;;;;;;5054191;28;20052;-52
2022/06/13 08:26:16;;;;;;;20.23;5.63;;;19.30;50.90;;;;;;5051087;28;20052;-53
2022/06/13 08:28:45;;;;;;;14.13;5.47;;;19.30;51.30;;;;;;5056550;28;20063;-54
2022/06/13 08:31:15;;;;;;;13.45;4.65;;;19.40;51.30;;;;;;5054210;28;20045;-56
2022/06/13 08:33:42;;;;;;;18.02;5.68;;;19.40;51.30;;;;;;5054095;28;20053;-53
2022/06/13 08:36:11;;;;;;;14.55;5.07;;;19.50;51.80;;;;;;5049180;28;20067;-50
2022/06/13 08:38:38;;;;;;;20.25;5.95;;;19.50;51.00;;;;;;5048011;28;20060;-52
2022/06/13 08:41:16;;;;;;;20.95;5.50;;;19.50;50.70;;;;;;5056406;28;20053;-54
2022/06/13 08:44:20;;;;;;;17.00;5.82;;;19.60;50.80;;;;;;5058369;28;20454;-50
2022/06/13 08:47:02;;;;;;;15.77;5.35;;;19.60;51.00;;;;;;5049475;28;21968;-51
2022/06/13 08:49:36;;;;;;;22.67;6.07;;;19.50;51.00;;;;;;5061216;28;20061;-54
2022/06/13 08:52:15;;;;;;;15.70;5.72;;;19.60;51.00;;;;;;5056901;28;20048;-48
2022/06/13 08:54:46;;;;;;;18.27;5.97;;;19.60;51.00;;;;;;5060582;28;20564;-52
2022/06/13 08:57:14;;;;;;;15.93;5.72;;;19.50;50.90;;;;;;5060453;28;20392;-56
2022/06/13 08:59:46;;;;;;;15.52;5.65;;;19.60;51.00;;;;;;5061397;28;20055;-53
2022/06/13 09:02:23;;;;;;;21.80;6.72;;;19.70;51.10;;;;;;5057975;28;20060;-49
2022/06/13 09:04:56;;;;;;;21.98;6.65;;;19.70;51.00;;;;;;5059989;28;20052;-50
2022/06/13 09:07:29;;;;;;;18.10;6.93;;;19.80;50.90;;;;;;5058950;28;20063;-55
2022/06/13 09:10:04;;;;;;;33.08;9.30;;;19.80;50.60;;;;;;5061502;28;20053;-57
2022/06/13 09:12:41;;;;;;;20.92;7.82;;;19.90;50.40;;;;;;5060166;28;20492;-52
2022/06/13 09:15:16;;;;;;;20.00;8.40;;;19.80;50.10;;;;;;5060619;28;20416;-51
2022/06/13 09:17:49;;;;;;;27.38;8.18;;;19.90;50.80;;;;;;5059555;28;20045;-52
2022/06/13 09:20:23;;;;;;;23.75;8.57;;;19.90;51.70;;;;;;5058833;28;21406;-52
2022/06/13 09:23:01;;;;;;;22.83;8.82;;;19.90;50.70;;;;;;5058304;28;20055;-52
2022/06/13 09:25:39;;;;;;;22.05;8.18;;;19.90;50.40;;;;;;5056642;28;20053;-49
2022/06/13 09:28:11;;;;;;;17.63;8.07;;;20.00;50.50;;;;;;5057511;28;20048;-52
2022/06/13 09:30:46;;;;;;;24.58;8.82;;;20.00;50.70;;;;;;5058802;28;20484;-53
2022/06/13 09:33:21;;;;;;;20.85;7.82;;;20.10;51.10;;;;;;5060484;28;20056;-50
2022/06/13 09:35:55;;;;;;;23.98;8.02;;;20.10;51.40;;;;;;5061117;28;20059;-49
2022/06/13 09:38:25;;;;;;;38.65;8.73;;;20.20;50.80;;;;;;5064136;28;20052;-47
2022/06/13 09:41:09;;;;;;;19.70;8.23;;;20.30;51.10;;;;;;5061871;28;20628;-57
2022/06/13 09:43:46;;;;;;;27.63;8.98;;;20.40;50.50;;;;;;5064704;28;20059;-51
2022/06/13 09:46:20;;;;;;;23.23;8.55;;;20.40;49.90;;;;;;5062287;28;20053;-49
2022/06/13 09:49:00;;;;;;;28.85;9.10;;;20.50;49.80;;;;;;5064434;28;20057;-50
2022/06/13 09:51:42;;;;;;;23.33;8.25;;;20.50;49.50;;;;;;5061103;28;20052;-51
2022/06/13 09:54:19;;;;;;;28.55;8.45;;;20.40;49.60;;;;;;5064656;28;20063;-52
2022/06/13 09:56:58;;;;;;;32.60;7.50;;;20.30;49.00;;;;;;5063119;28;20048;-56
2022/06/13 09:59:39;;;;;;;24.13;8.57;;;20.30;48.90;;;;;;5064619;28;20061;-53
2022/06/13 10:02:16;;;;;;;26.70;8.07;;;20.30;48.70;;;;;;5060461;28;20048;-51
2022/06/13 10:04:53;;;;;;;24.40;7.90;;;20.20;48.60;;;;;;5062605;28;20044;-53
2022/06/13 10:07:23;;;;;;;21.85;6.90;;;20.20;48.70;;;;;;5063495;28;20052;-52
2022/06/13 10:09:56;;;;;;;19.88;6.90;;;20.20;48.70;;;;;;5064540;28;20488;-53
2022/06/13 10:12:32;;;;;;;16.73;6.18;;;20.20;48.40;;;;;;5062744;28;20492;-55
2022/06/13 10:15:16;;;;;;;23.38;7.35;;;20.20;48.30;;;;;;5063979;28;20060;-53
2022/06/13 10:17:57;;;;;;;23.02;7.78;;;20.30;49.30;;;;;;5055642;28;20057;-51
2022/06/13 10:20:34;;;;;;;25.58;7.43;;;20.30;48.80;;;;;;5045562;28;20515;-47
2022/06/13 10:23:13;;;;;;;23.92;6.97;;;20.50;49.00;;;;;;5058094;28;20071;-51
2022/06/13 10:25:59;;;;;;;24.15;5.95;;;20.50;48.70;;;;;;5044735;28;20057;-51
2022/06/13 10:28:52;;;;;;;20.48;5.68;;;20.60;47.60;;;;;;5053445;28;20523;-51
2022/06/13 10:31:29;;;;;;;15.77;5.18;;;20.70;46.70;;;;;;5046555;28;20057;-56
2022/06/13 10:34:06;;;;;;;15.52;5.00;;;20.80;46.10;;;;;;5054026;28;20052;-58
2022/06/13 10:36:39;;;;;;;15.18;5.32;;;20.90;46.60;;;;;;5052057;28;20404;-55
2022/06/13 10:39:12;;;;;;;18.77;5.07;;;20.90;46.20;;;;;;5049142;28;20187;-58
2022/06/13 10:41:46;;;;;;;15.88;4.65;;;20.90;45.70;;;;;;5046194;28;20056;-53
2022/06/13 10:44:18;;;;;;;18.85;4.15;;;20.90;45.80;;;;;;5055046;28;20045;-52
2022/06/13 10:46:50;;;;;;;16.48;4.32;;;21.00;45.00;;;;;;5049170;28;20373;-47
2022/06/13 10:49:23;;;;;;;15.52;4.22;;;21.00;44.60;;;;;;5050157;28;20515;-50
2022/06/13 10:51:52;;;;;;;14.05;4.30;;;21.00;45.00;;;;;;5042269;28;20052;-52
2022/06/13 10:54:23;;;;;;;18.30;5.05;;;21.10;45.00;;;;;;5049954;28;20052;-49
2022/06/13 10:56:54;;;;;;;9.57;3.83;;;21.10;45.30;;;;;;5054665;28;20439;-53
2022/06/13 10:59:24;;;;;;;12.82;5.00;;;21.10;45.30;;;;;;5059799;28;20068;-56
2022/06/13 11:02:00;;;;;;;21.85;4.43;;;21.20;46.20;;;;;;5061243;28;20063;-54
2022/06/13 11:04:30;;;;;;;16.45;4.32;;;21.20;45.80;;;;;;5063011;28;20068;-60
2022/06/13 11:07:02;;;;;;;12.30;3.95;;;21.20;44.80;;;;;;5061687;28;20061;-49
2022/06/13 11:09:36;;;;;;;18.05;4.47;;;21.20;45.70;;;;;;5062230;28;20067;-56
2022/06/13 11:12:27;;;;;;;19.02;4.28;;;21.10;44.80;;;;;;5062432;28;20051;-52
2022/06/13 11:23:36;;;;;;;18.67;5.10;;;21.00;45.50;;;;;;5068076;28;20067;-53
2022/06/13 11:27:39;;;;;;;17.23;4.53;;;21.00;44.50;;;;;;5062786;28;20051;-53
2022/06/13 11:28:52;;;;;;;16.02;3.80;;;21.00;44.30;;;;;;5061443;28;20075;-52
2022/06/13 11:31:25;;;;;;;14.57;4.28;;;21.00;45.40;;;;;;5060736;28;20045;-50
2022/06/13 11:33:53;;;;;;;15.35;4.53;;;21.00;44.90;;;;;;5063134;28;20418;-55
2022/06/13 11:36:26;;;;;;;17.85;3.92;;;21.00;44.80;;;;;;5058872;28;20067;-51
2022/06/13 11:38:56;;;;;;;14.13;3.70;;;21.00;45.00;;;;;;5062592;28;20056;-53
2022/06/13 11:41:26;;;;;;;13.35;3.80;;;21.10;44.80;;;;;;5060115;28;20048;-51
2022/06/13 11:43:59;;;;;;;16.63;4.22;;;21.20;44.10;;;;;;5060942;28;20428;-52
2022/06/13 11:46:37;;;;;;;17.07;3.93;;;21.20;44.00;;;;;;5060542;28;20061;-52
2022/06/13 11:49:24;;;;;;;11.77;3.38;;;21.30;43.20;;;;;;5058408;28;20055;-53
2022/06/13 11:51:57;;;;;;;10.88;3.55;;;21.40;42.90;;;;;;5059025;28;20412;-56
2022/06/13 11:54:28;;;;;;;15.65;5.25;;;21.40;42.00;;;;;;5062299;28;20060;-49
2022/06/13 11:57:20;;;;;;;14.65;4.63;;;21.30;43.10;;;;;;5055872;28;20055;-49
2022/06/13 11:59:53;;;;;;;15.13;4.60;;;21.30;43.90;;;;;;5061209;28;21620;-46
2022/06/13 12:02:23;;;;;;;15.70;4.38;;;21.10;43.50;;;;;;5059938;28;20059;-53
2022/06/13 12:04:54;;;;;;;9.07;3.15;;;21.00;43.20;;;;;;5060571;28;20056;-56
2022/06/13 12:07:26;;;;;;;15.85;4.28;;;20.90;43.20;;;;;;5058389;28;20056;-56
2022/06/13 12:09:56;;;;;;;14.15;4.28;;;20.80;43.70;;;;;;5059898;28;20052;-54
2022/06/13 12:12:26;;;;;;;16.25;3.60;;;20.80;44.20;;;;;;5059593;28;20044;-54
2022/06/13 12:14:56;;;;;;;11.63;3.70;;;20.80;44.80;;;;;;5062076;28;20052;-54
2022/06/13 12:17:30;;;;;;;14.68;3.60;;;20.70;43.80;;;;;;5058375;28;20504;-52
2022/06/13 12:20:04;;;;;;;9.73;3.15;;;20.80;44.20;;;;;;5060525;28;20589;-55
2022/06/13 12:22:38;;;;;;;10.70;3.72;;;20.90;43.80;;;;;;5059996;28;20052;-47
2022/06/13 12:25:12;;;;;;;12.82;3.60;;;20.90;42.10;;;;;;5061992;28;20052;-57
2022/06/13 12:27:50;;;;;;;11.75;3.13;;;21.00;41.50;;;;;;5056826;28;20051;-52
2022/06/13 12:30:34;;;;;;;10.10;3.00;;;21.10;42.20;;;;;;5060331;28;20979;-48
2022/06/13 12:33:11;;;;;;;13.82;3.10;;;21.20;42.20;;;;;;5061591;28;20763;-60
2022/06/13 12:35:58;;;;;;;12.25;3.13;;;21.30;41.60;;;;;;5060074;28;20508;-48
2022/06/13 12:38:51;;;;;;;9.88;3.05;;;21.50;42.00;;;;;;5060816;28;20053;-50
2022/06/13 12:41:28;;;;;;;15.60;3.25;;;21.60;41.90;;;;;;5058316;28;20056;-53
2022/06/13 12:44:10;;;;;;;15.30;3.35;;;21.70;42.10;;;;;;5043094;28;20058;-51
2022/06/13 12:47:00;;;;;;;8.00;2.40;;;21.80;40.80;;;;;;5055198;28;20080;-54
2022/06/13 12:49:52;;;;;;;10.70;2.50;;;21.80;39.40;;;;;;5046720;28;20056;-52
2022/06/13 12:52:36;;;;;;;11.10;3.08;;;21.90;40.60;;;;;;5041435;28;20048;-50
2022/06/13 12:55:24;;;;;;;9.60;2.30;;;21.90;38.90;;;;;;5047667;28;20403;-52
2022/06/13 12:58:07;;;;;;;7.82;2.45;;;22.00;39.30;;;;;;5043617;28;20052;-55
2022/06/13 13:00:42;;;;;;;13.80;2.92;;;22.10;38.20;;;;;;5054962;28;20060;-56
2022/06/13 13:03:27;;;;;;;9.55;3.13;;;22.10;38.50;;;;;;5050345;28;20487;-51
2022/06/13 13:06:06;;;;;;;11.23;2.90;;;22.10;39.20;;;;;;5044128;28;20067;-57
2022/06/13 13:08:50;;;;;;;10.20;2.95;;;22.10;39.20;;;;;;5052422;28;20060;-55
2022/06/13 13:11:36;;;;;;;11.15;3.10;;;22.10;39.60;;;;;;5054529;28;20072;-54
2022/06/13 13:14:08;;;;;;;8.90;3.03;;;22.10;38.00;;;;;;5053073;28;20052;-58
2022/06/13 13:16:48;;;;;;;8.45;2.58;;;22.10;38.70;;;;;;5055680;28;20055;-53
2022/06/13 13:19:34;;;;;;;10.25;2.72;;;22.00;39.30;;;;;;5048951;28;20488;-59
2022/06/13 13:22:10;;;;;;;11.55;2.95;;;22.00;37.70;;;;;;5051574;28;20055;-58
2022/06/13 13:24:57;;;;;;;11.82;3.30;;;21.90;38.60;;;;;;5061483;28;20063;-56
2022/06/13 13:27:27;;;;;;;15.30;2.88;;;21.80;38.50;;;;;;5064360;28;20055;-49
2022/06/13 13:30:06;;;;;;;5.03;2.00;;;21.70;39.10;;;;;;5062712;28;20427;-58
2022/06/13 13:32:49;;;;;;;12.57;2.88;;;21.70;40.00;;;;;;5062624;28;20056;-57
2022/06/13 13:35:26;;;;;;;10.35;2.40;;;21.70;39.50;;;;;;5060745;28;20506;-56